sensor_id;sensor_type;location;lat;lon;timestamp;P1;durP1;ratioP1;P2;durP2;ratioP2
21202;SDS011;10759;51.982;9.232;2023-12-20T00:01:19;8.05;;;7.45;;
21202;SDS011;10759;51.982;9.232;2023-12-20T00:03:47;8.45;;;7.75;;
21202;SDS011;10759;51.982;9.232;2023-12-20T00:06:15;9.38;;;8.45;;
21202;SDS011;10759;51.982;9.232;2023-12-20T00:08:44;8.68;;;7.95;;
21202;SDS011;10759;51.982;9.232;2023-12-20T00:11:12;9.00;;;8.20;;
21202;SDS011;10759;51.982;9.232;2023-12-20T00:13:40;8.98;;;8.27;;
21202;SDS011;10759;51.982;9.232;2023-12-20T00:16:09;9.07;;;8.32;;
21202;SDS011;10759;51.982;9.232;2023-12-20T00:18:37;9.32;;;8.63;;
21202;SDS011;10759;51.982;9.232;2023-12-20T00:21:05;9.77;;;8.88;;
21202;SDS011;10759;51.982;9.232;2023-12-20T00:23:33;9.68;;;8.57;;
21202;SDS011;10759;51.982;9.232;2023-12-20T00:26:02;9.15;;;8.45;;
21202;SDS011;10759;51.982;9.232;2023-12-20T00:28:30;9.15;;;8.45;;
21202;SDS011;10759;51.982;9.232;2023-12-20T00:30:58;9.48;;;8.57;;
21202;SDS011;10759;51.982;9.232;2023-12-20T00:33:27;8.73;;;7.75;;
21202;SDS011;10759;51.982;9.232;2023-12-20T00:35:54;8.93;;;8.13;;
21202;SDS011;10759;51.982;9.232;2023-12-20T00:38:22;8.80;;;7.90;;
21202;SDS011;10759;51.982;9.232;2023-12-20T00:40:50;8.68;;;7.88;;
21202;SDS011;10759;51.982;9.232;2023-12-20T00:43:19;8.82;;;7.95;;
21202;SDS011;10759;51.982;9.232;2023-12-20T00:45:47;9.27;;;8.48;;
21202;SDS011;10759;51.982;9.232;2023-12-20T00:48:15;9.98;;;7.65;;
21202;SDS011;10759;51.982;9.232;2023-12-20T00:50:43;6.68;;;6.13;;
21202;SDS011;10759;51.982;9.232;2023-12-20T00:53:11;7.18;;;6.47;;
21202;SDS011;10759;51.982;9.232;2023-12-20T00:55:39;7.85;;;6.10;;
21202;SDS011;10759;51.982;9.232;2023-12-20T00:58:07;9.10;;;6.18;;
21202;SDS011;10759;51.982;9.232;2023-12-20T01:00:36;7.25;;;5.72;;
21202;SDS011;10759;51.982;9.232;2023-12-20T01:03:08;9.30;;;5.82;;
21202;SDS011;10759;51.982;9.232;2023-12-20T01:05:36;6.05;;;5.35;;
21202;SDS011;10759;51.982;9.232;2023-12-20T01:08:04;8.90;;;5.30;;
21202;SDS011;10759;51.982;9.232;2023-12-20T01:10:32;7.97;;;5.05;;
21202;SDS011;10759;51.982;9.232;2023-12-20T01:13:00;7.60;;;5.45;;
21202;SDS011;10759;51.982;9.232;2023-12-20T01:15:28;6.30;;;4.88;;
21202;SDS011;10759;51.982;9.232;2023-12-20T01:17:57;7.65;;;5.03;;
21202;SDS011;10759;51.982;9.232;2023-12-20T01:20:25;8.07;;;5.65;;
21202;SDS011;10759;51.982;9.232;2023-12-20T01:22:53;6.95;;;5.35;;
21202;SDS011;10759;51.982;9.232;2023-12-20T01:25:21;5.18;;;4.68;;
21202;SDS011;10759;51.982;9.232;2023-12-20T01:27:49;6.63;;;4.85;;
21202;SDS011;10759;51.982;9.232;2023-12-20T01:30:17;7.28;;;4.45;;
21202;SDS011;10759;51.982;9.232;2023-12-20T01:32:45;7.78;;;4.50;;
21202;SDS011;10759;51.982;9.232;2023-12-20T01:35:14;5.28;;;4.43;;
21202;SDS011;10759;51.982;9.232;2023-12-20T01:37:42;5.53;;;4.53;;
21202;SDS011;10759;51.982;9.232;2023-12-20T01:40:11;6.18;;;4.65;;
21202;SDS011;10759;51.982;9.232;2023-12-20T01:42:38;6.55;;;5.20;;
21202;SDS011;10759;51.982;9.232;2023-12-20T01:45:07;7.32;;;4.80;;
21202;SDS011;10759;51.982;9.232;2023-12-20T01:47:35;6.57;;;4.45;;
21202;SDS011;10759;51.982;9.232;2023-12-20T01:50:04;4.97;;;4.03;;
21202;SDS011;10759;51.982;9.232;2023-12-20T01:52:36;7.15;;;4.32;;
21202;SDS011;10759;51.982;9.232;2023-12-20T01:55:04;6.60;;;4.00;;
21202;SDS011;10759;51.982;9.232;2023-12-20T01:57:39;7.25;;;3.70;;
21202;SDS011;10759;51.982;9.232;2023-12-20T02:00:09;7.88;;;4.15;;
21202;SDS011;10759;51.982;9.232;2023-12-20T02:02:39;5.22;;;2.72;;
21202;SDS011;10759;51.982;9.232;2023-12-20T02:05:07;7.20;;;2.80;;
21202;SDS011;10759;51.982;9.232;2023-12-20T02:07:38;8.63;;;2.92;;
21202;SDS011;10759;51.982;9.232;2023-12-20T02:10:06;6.15;;;2.30;;
21202;SDS011;10759;51.982;9.232;2023-12-20T02:16:40;5.80;;;2.83;;
21202;SDS011;10759;51.982;9.232;2023-12-20T02:19:11;6.63;;;2.78;;
21202;SDS011;10759;51.982;9.232;2023-12-20T02:21:43;7.10;;;2.67;;
21202;SDS011;10759;51.982;9.232;2023-12-20T02:24:11;8.05;;;3.40;;
21202;SDS011;10759;51.982;9.232;2023-12-20T02:26:39;9.90;;;3.45;;
21202;SDS011;10759;51.982;9.232;2023-12-20T02:29:12;6.75;;;3.03;;
21202;SDS011;10759;51.982;9.232;2023-12-20T02:31:42;3.83;;;2.40;;
21202;SDS011;10759;51.982;9.232;2023-12-20T02:34:10;5.35;;;2.40;;
21202;SDS011;10759;51.982;9.232;2023-12-20T02:36:38;6.05;;;2.80;;
21202;SDS011;10759;51.982;9.232;2023-12-20T02:39:07;5.35;;;2.67;;
21202;SDS011;10759;51.982;9.232;2023-12-20T02:41:35;6.13;;;2.60;;
21202;SDS011;10759;51.982;9.232;2023-12-20T02:44:03;8.40;;;3.40;;
21202;SDS011;10759;51.982;9.232;2023-12-20T02:46:31;3.90;;;2.67;;
21202;SDS011;10759;51.982;9.232;2023-12-20T02:48:59;4.10;;;3.35;;
21202;SDS011;10759;51.982;9.232;2023-12-20T02:51:27;4.45;;;3.20;;
21202;SDS011;10759;51.982;9.232;2023-12-20T02:53:55;6.25;;;2.95;;
21202;SDS011;10759;51.982;9.232;2023-12-20T02:56:24;8.70;;;3.50;;
21202;SDS011;10759;51.982;9.232;2023-12-20T02:58:51;7.60;;;3.20;;
21202;SDS011;10759;51.982;9.232;2023-12-20T03:01:19;4.70;;;3.20;;
21202;SDS011;10759;51.982;9.232;2023-12-20T03:03:47;6.00;;;3.25;;
21202;SDS011;10759;51.982;9.232;2023-12-20T03:06:16;8.90;;;3.55;;
21202;SDS011;10759;51.982;9.232;2023-12-20T03:08:45;7.53;;;3.08;;
21202;SDS011;10759;51.982;9.232;2023-12-20T03:11:13;8.38;;;3.85;;
21202;SDS011;10759;51.982;9.232;2023-12-20T03:13:42;8.57;;;3.55;;
21202;SDS011;10759;51.982;9.232;2023-12-20T03:16:10;7.13;;;3.22;;
21202;SDS011;10759;51.982;9.232;2023-12-20T03:18:38;9.07;;;3.28;;
21202;SDS011;10759;51.982;9.232;2023-12-20T03:21:06;7.25;;;3.30;;
21202;SDS011;10759;51.982;9.232;2023-12-20T03:23:34;6.90;;;3.63;;
21202;SDS011;10759;51.982;9.232;2023-12-20T03:26:02;5.22;;;2.40;;
21202;SDS011;10759;51.982;9.232;2023-12-20T03:28:30;6.57;;;2.72;;
21202;SDS011;10759;51.982;9.232;2023-12-20T03:30:59;7.70;;;3.42;;
21202;SDS011;10759;51.982;9.232;2023-12-20T03:33:29;4.53;;;2.30;;
21202;SDS011;10759;51.982;9.232;2023-12-20T03:35:57;8.23;;;2.60;;
21202;SDS011;10759;51.982;9.232;2023-12-20T03:38:24;6.72;;;3.05;;
21202;SDS011;10759;51.982;9.232;2023-12-20T03:40:52;6.15;;;2.22;;
21202;SDS011;10759;51.982;9.232;2023-12-20T03:43:20;11.25;;;3.28;;
21202;SDS011;10759;51.982;9.232;2023-12-20T03:45:48;7.30;;;2.90;;
21202;SDS011;10759;51.982;9.232;2023-12-20T03:48:17;6.93;;;2.97;;
21202;SDS011;10759;51.982;9.232;2023-12-20T03:50:45;6.30;;;2.50;;
21202;SDS011;10759;51.982;9.232;2023-12-20T03:53:13;3.72;;;2.63;;
21202;SDS011;10759;51.982;9.232;2023-12-20T03:55:41;6.85;;;2.67;;
21202;SDS011;10759;51.982;9.232;2023-12-20T03:58:09;6.80;;;2.97;;
21202;SDS011;10759;51.982;9.232;2023-12-20T04:00:37;6.85;;;3.35;;
21202;SDS011;10759;51.982;9.232;2023-12-20T04:03:04;7.07;;;4.72;;
21202;SDS011;10759;51.982;9.232;2023-12-20T04:05:34;10.43;;;3.05;;
21202;SDS011;10759;51.982;9.232;2023-12-20T04:08:02;7.15;;;3.20;;
21202;SDS011;10759;51.982;9.232;2023-12-20T04:10:30;10.05;;;3.83;;
21202;SDS011;10759;51.982;9.232;2023-12-20T04:12:58;7.43;;;4.85;;
21202;SDS011;10759;51.982;9.232;2023-12-20T04:15:26;6.60;;;3.92;;
21202;SDS011;10759;51.982;9.232;2023-12-20T04:17:54;9.43;;;4.63;;
21202;SDS011;10759;51.982;9.232;2023-12-20T04:20:22;10.23;;;4.40;;
21202;SDS011;10759;51.982;9.232;2023-12-20T04:22:51;10.13;;;5.45;;
21202;SDS011;10759;51.982;9.232;2023-12-20T04:25:19;7.97;;;5.63;;
21202;SDS011;10759;51.982;9.232;2023-12-20T04:27:47;16.25;;;5.90;;
21202;SDS011;10759;51.982;9.232;2023-12-20T04:30:15;11.70;;;4.90;;
21202;SDS011;10759;51.982;9.232;2023-12-20T04:32:43;10.93;;;5.05;;
21202;SDS011;10759;51.982;9.232;2023-12-20T04:35:11;10.57;;;5.43;;
21202;SDS011;10759;51.982;9.232;2023-12-20T04:37:39;13.50;;;4.55;;
21202;SDS011;10759;51.982;9.232;2023-12-20T04:40:09;9.88;;;4.50;;
21202;SDS011;10759;51.982;9.232;2023-12-20T04:42:38;9.05;;;4.00;;
21202;SDS011;10759;51.982;9.232;2023-12-20T04:45:06;7.60;;;4.65;;
21202;SDS011;10759;51.982;9.232;2023-12-20T04:47:34;10.25;;;4.63;;
21202;SDS011;10759;51.982;9.232;2023-12-20T04:50:02;11.07;;;5.10;;
21202;SDS011;10759;51.982;9.232;2023-12-20T04:52:31;8.43;;;4.83;;
21202;SDS011;10759;51.982;9.232;2023-12-20T04:54:59;12.38;;;5.35;;
21202;SDS011;10759;51.982;9.232;2023-12-20T04:57:28;12.90;;;6.00;;
21202;SDS011;10759;51.982;9.232;2023-12-20T04:59:56;15.75;;;5.38;;
21202;SDS011;10759;51.982;9.232;2023-12-20T05:02:24;9.65;;;4.78;;
21202;SDS011;10759;51.982;9.232;2023-12-20T05:04:52;12.95;;;5.53;;
21202;SDS011;10759;51.982;9.232;2023-12-20T05:07:21;13.98;;;5.35;;
21202;SDS011;10759;51.982;9.232;2023-12-20T05:09:49;12.60;;;4.88;;
21202;SDS011;10759;51.982;9.232;2023-12-20T05:12:17;7.72;;;4.60;;
21202;SDS011;10759;51.982;9.232;2023-12-20T05:14:47;11.20;;;5.13;;
21202;SDS011;10759;51.982;9.232;2023-12-20T05:17:14;10.40;;;4.78;;
21202;SDS011;10759;51.982;9.232;2023-12-20T05:19:42;14.40;;;5.32;;
21202;SDS011;10759;51.982;9.232;2023-12-20T05:22:10;11.43;;;5.97;;
21202;SDS011;10759;51.982;9.232;2023-12-20T05:24:38;12.50;;;5.25;;
21202;SDS011;10759;51.982;9.232;2023-12-20T05:27:06;11.65;;;5.10;;
21202;SDS011;10759;51.982;9.232;2023-12-20T05:29:34;12.95;;;5.32;;
21202;SDS011;10759;51.982;9.232;2023-12-20T05:32:04;16.17;;;5.70;;
21202;SDS011;10759;51.982;9.232;2023-12-20T05:34:32;13.68;;;5.50;;
21202;SDS011;10759;51.982;9.232;2023-12-20T05:37:00;11.25;;;5.70;;
21202;SDS011;10759;51.982;9.232;2023-12-20T05:39:29;18.30;;;5.57;;
21202;SDS011;10759;51.982;9.232;2023-12-20T05:41:57;16.17;;;5.55;;
21202;SDS011;10759;51.982;9.232;2023-12-20T05:44:26;10.82;;;5.53;;
21202;SDS011;10759;51.982;9.232;2023-12-20T05:46:54;14.00;;;5.03;;
21202;SDS011;10759;51.982;9.232;2023-12-20T05:49:23;10.13;;;4.97;;
21202;SDS011;10759;51.982;9.232;2023-12-20T05:51:51;12.55;;;5.40;;
21202;SDS011;10759;51.982;9.232;2023-12-20T05:54:19;9.68;;;5.25;;
21202;SDS011;10759;51.982;9.232;2023-12-20T05:56:47;12.27;;;4.70;;
21202;SDS011;10759;51.982;9.232;2023-12-20T05:59:16;16.75;;;5.47;;
21202;SDS011;10759;51.982;9.232;2023-12-20T06:01:44;13.70;;;5.22;;
21202;SDS011;10759;51.982;9.232;2023-12-20T06:04:12;11.40;;;5.00;;
21202;SDS011;10759;51.982;9.232;2023-12-20T06:06:42;12.20;;;5.30;;
21202;SDS011;10759;51.982;9.232;2023-12-20T06:09:11;12.38;;;5.30;;
21202;SDS011;10759;51.982;9.232;2023-12-20T06:11:39;10.75;;;4.88;;
21202;SDS011;10759;51.982;9.232;2023-12-20T06:14:07;10.32;;;4.85;;
21202;SDS011;10759;51.982;9.232;2023-12-20T06:16:35;14.05;;;5.28;;
21202;SDS011;10759;51.982;9.232;2023-12-20T06:19:03;15.50;;;5.35;;
21202;SDS011;10759;51.982;9.232;2023-12-20T06:21:31;12.40;;;5.32;;
21202;SDS011;10759;51.982;9.232;2023-12-20T06:24:00;13.57;;;6.10;;
21202;SDS011;10759;51.982;9.232;2023-12-20T06:26:28;15.55;;;5.30;;
21202;SDS011;10759;51.982;9.232;2023-12-20T06:28:56;14.13;;;5.40;;
21202;SDS011;10759;51.982;9.232;2023-12-20T06:31:24;12.20;;;5.07;;
21202;SDS011;10759;51.982;9.232;2023-12-20T06:33:51;17.60;;;6.07;;
21202;SDS011;10759;51.982;9.232;2023-12-20T06:36:24;13.10;;;5.60;;
21202;SDS011;10759;51.982;9.232;2023-12-20T06:38:52;17.40;;;5.80;;
21202;SDS011;10759;51.982;9.232;2023-12-20T06:41:22;12.55;;;6.35;;
21202;SDS011;10759;51.982;9.232;2023-12-20T06:43:50;13.70;;;5.53;;
21202;SDS011;10759;51.982;9.232;2023-12-20T06:46:19;12.18;;;5.15;;
21202;SDS011;10759;51.982;9.232;2023-12-20T06:48:47;13.52;;;5.30;;
21202;SDS011;10759;51.982;9.232;2023-12-20T06:51:16;13.90;;;4.65;;
21202;SDS011;10759;51.982;9.232;2023-12-20T06:53:44;16.42;;;6.10;;
21202;SDS011;10759;51.982;9.232;2023-12-20T06:56:12;11.68;;;5.20;;
21202;SDS011;10759;51.982;9.232;2023-12-20T06:58:45;10.68;;;4.90;;
21202;SDS011;10759;51.982;9.232;2023-12-20T07:01:13;14.65;;;5.35;;
21202;SDS011;10759;51.982;9.232;2023-12-20T07:03:43;20.90;;;5.45;;
21202;SDS011;10759;51.982;9.232;2023-12-20T07:06:11;14.00;;;5.07;;
21202;SDS011;10759;51.982;9.232;2023-12-20T07:08:40;15.32;;;5.88;;
21202;SDS011;10759;51.982;9.232;2023-12-20T07:11:08;10.60;;;4.78;;
21202;SDS011;10759;51.982;9.232;2023-12-20T07:13:35;14.10;;;5.50;;
21202;SDS011;10759;51.982;9.232;2023-12-20T07:16:05;12.13;;;5.72;;
21202;SDS011;10759;51.982;9.232;2023-12-20T07:18:33;15.63;;;6.45;;
21202;SDS011;10759;51.982;9.232;2023-12-20T07:21:01;12.27;;;5.57;;
21202;SDS011;10759;51.982;9.232;2023-12-20T07:23:29;10.30;;;5.40;;
21202;SDS011;10759;51.982;9.232;2023-12-20T07:25:57;12.00;;;5.53;;
21202;SDS011;10759;51.982;9.232;2023-12-20T07:28:25;11.23;;;5.70;;
21202;SDS011;10759;51.982;9.232;2023-12-20T07:30:53;11.68;;;5.63;;
21202;SDS011;10759;51.982;9.232;2023-12-20T07:33:22;12.82;;;5.18;;
21202;SDS011;10759;51.982;9.232;2023-12-20T07:35:50;14.00;;;5.75;;
21202;SDS011;10759;51.982;9.232;2023-12-20T07:38:19;18.52;;;6.72;;
21202;SDS011;10759;51.982;9.232;2023-12-20T07:40:47;13.00;;;5.90;;
21202;SDS011;10759;51.982;9.232;2023-12-20T07:43:15;15.38;;;6.63;;
21202;SDS011;10759;51.982;9.232;2023-12-20T07:45:42;17.13;;;7.65;;
21202;SDS011;10759;51.982;9.232;2023-12-20T07:48:10;16.35;;;6.63;;
21202;SDS011;10759;51.982;9.232;2023-12-20T07:50:40;14.88;;;6.53;;
21202;SDS011;10759;51.982;9.232;2023-12-20T07:53:08;16.17;;;7.20;;
21202;SDS011;10759;51.982;9.232;2023-12-20T07:55:36;16.13;;;7.15;;
21202;SDS011;10759;51.982;9.232;2023-12-20T07:58:04;14.05;;;6.53;;
21202;SDS011;10759;51.982;9.232;2023-12-20T08:00:32;18.25;;;6.75;;
21202;SDS011;10759;51.982;9.232;2023-12-20T08:03:00;14.35;;;6.07;;
21202;SDS011;10759;51.982;9.232;2023-12-20T08:05:30;11.32;;;4.95;;
21202;SDS011;10759;51.982;9.232;2023-12-20T08:07:59;16.13;;;5.93;;
21202;SDS011;10759;51.982;9.232;2023-12-20T08:10:26;20.67;;;6.13;;
21202;SDS011;10759;51.982;9.232;2023-12-20T08:12:56;16.92;;;6.53;;
21202;SDS011;10759;51.982;9.232;2023-12-20T08:15:24;14.55;;;7.30;;
21202;SDS011;10759;51.982;9.232;2023-12-20T08:17:52;13.90;;;6.15;;
21202;SDS011;10759;51.982;9.232;2023-12-20T08:20:20;9.27;;;5.93;;
21202;SDS011;10759;51.982;9.232;2023-12-20T08:23:00;18.25;;;6.40;;
21202;SDS011;10759;51.982;9.232;2023-12-20T08:25:28;17.87;;;7.17;;
21202;SDS011;10759;51.982;9.232;2023-12-20T08:27:56;15.30;;;6.63;;
21202;SDS011;10759;51.982;9.232;2023-12-20T08:30:23;14.82;;;7.63;;
21202;SDS011;10759;51.982;9.232;2023-12-20T08:32:51;13.95;;;7.25;;
21202;SDS011;10759;51.982;9.232;2023-12-20T08:35:19;15.45;;;8.45;;
21202;SDS011;10759;51.982;9.232;2023-12-20T08:37:47;15.02;;;7.50;;
21202;SDS011;10759;51.982;9.232;2023-12-20T08:40:16;18.08;;;9.20;;
21202;SDS011;10759;51.982;9.232;2023-12-20T08:42:44;12.97;;;8.17;;
21202;SDS011;10759;51.982;9.232;2023-12-20T08:45:12;14.77;;;8.02;;
21202;SDS011;10759;51.982;9.232;2023-12-20T08:47:40;17.20;;;8.18;;
21202;SDS011;10759;51.982;9.232;2023-12-20T08:50:11;15.02;;;7.15;;
21202;SDS011;10759;51.982;9.232;2023-12-20T08:52:39;13.82;;;7.15;;
21202;SDS011;10759;51.982;9.232;2023-12-20T08:55:08;12.40;;;6.85;;
21202;SDS011;10759;51.982;9.232;2023-12-20T08:57:38;11.75;;;7.13;;
21202;SDS011;10759;51.982;9.232;2023-12-20T09:00:07;14.80;;;9.30;;
21202;SDS011;10759;51.982;9.232;2023-12-20T09:02:35;12.60;;;7.10;;
21202;SDS011;10759;51.982;9.232;2023-12-20T09:05:04;12.57;;;7.38;;
21202;SDS011;10759;51.982;9.232;2023-12-20T09:07:32;18.10;;;6.95;;
21202;SDS011;10759;51.982;9.232;2023-12-20T09:10:00;13.27;;;7.15;;
21202;SDS011;10759;51.982;9.232;2023-12-20T09:12:29;15.70;;;6.90;;
21202;SDS011;10759;51.982;9.232;2023-12-20T09:14:58;11.73;;;6.80;;
21202;SDS011;10759;51.982;9.232;2023-12-20T09:17:28;11.55;;;7.45;;
21202;SDS011;10759;51.982;9.232;2023-12-20T09:19:59;15.38;;;7.82;;
21202;SDS011;10759;51.982;9.232;2023-12-20T09:22:27;18.52;;;8.05;;
21202;SDS011;10759;51.982;9.232;2023-12-20T09:24:55;14.15;;;8.30;;
21202;SDS011;10759;51.982;9.232;2023-12-20T09:27:23;13.95;;;9.02;;
21202;SDS011;10759;51.982;9.232;2023-12-20T09:29:51;12.43;;;9.15;;
21202;SDS011;10759;51.982;9.232;2023-12-20T09:32:21;16.52;;;10.35;;
21202;SDS011;10759;51.982;9.232;2023-12-20T09:34:49;18.65;;;10.10;;
21202;SDS011;10759;51.982;9.232;2023-12-20T09:37:17;15.02;;;9.23;;
21202;SDS011;10759;51.982;9.232;2023-12-20T09:39:44;15.68;;;10.32;;
21202;SDS011;10759;51.982;9.232;2023-12-20T09:42:14;11.57;;;9.30;;
21202;SDS011;10759;51.982;9.232;2023-12-20T09:44:48;13.93;;;10.23;;
21202;SDS011;10759;51.982;9.232;2023-12-20T09:47:16;13.82;;;9.60;;
21202;SDS011;10759;51.982;9.232;2023-12-20T09:49:50;14.18;;;9.75;;
21202;SDS011;10759;51.982;9.232;2023-12-20T09:52:19;13.50;;;9.75;;
21202;SDS011;10759;51.982;9.232;2023-12-20T09:54:50;17.55;;;9.23;;
21202;SDS011;10759;51.982;9.232;2023-12-20T09:57:21;15.85;;;8.40;;
21202;SDS011;10759;51.982;9.232;2023-12-20T09:59:49;16.60;;;8.45;;
21202;SDS011;10759;51.982;9.232;2023-12-20T10:02:17;12.32;;;7.75;;
21202;SDS011;10759;51.982;9.232;2023-12-20T10:04:53;11.15;;;8.30;;
21202;SDS011;10759;51.982;9.232;2023-12-20T10:07:22;11.18;;;8.15;;
21202;SDS011;10759;51.982;9.232;2023-12-20T10:09:51;11.85;;;8.68;;
21202;SDS011;10759;51.982;9.232;2023-12-20T10:12:22;12.23;;;8.80;;
21202;SDS011;10759;51.982;9.232;2023-12-20T10:14:50;14.10;;;8.45;;
21202;SDS011;10759;51.982;9.232;2023-12-20T10:17:18;12.10;;;8.90;;
21202;SDS011;10759;51.982;9.232;2023-12-20T10:19:47;12.10;;;8.25;;
21202;SDS011;10759;51.982;9.232;2023-12-20T10:22:15;12.30;;;7.13;;
21202;SDS011;10759;51.982;9.232;2023-12-20T10:24:43;14.27;;;8.27;;
21202;SDS011;10759;51.982;9.232;2023-12-20T10:27:13;16.02;;;9.02;;
21202;SDS011;10759;51.982;9.232;2023-12-20T10:29:41;15.23;;;8.77;;
21202;SDS011;10759;51.982;9.232;2023-12-20T10:32:21;12.90;;;8.10;;
21202;SDS011;10759;51.982;9.232;2023-12-20T10:34:52;13.75;;;8.73;;
21202;SDS011;10759;51.982;9.232;2023-12-20T10:37:21;12.52;;;8.05;;
21202;SDS011;10759;51.982;9.232;2023-12-20T10:39:50;14.23;;;7.22;;
21202;SDS011;10759;51.982;9.232;2023-12-20T10:42:24;15.90;;;7.90;;
21202;SDS011;10759;51.982;9.232;2023-12-20T10:44:54;11.40;;;7.40;;
21202;SDS011;10759;51.982;9.232;2023-12-20T10:47:22;18.25;;;9.35;;
21202;SDS011;10759;51.982;9.232;2023-12-20T10:49:53;17.67;;;8.35;;
21202;SDS011;10759;51.982;9.232;2023-12-20T10:54:50;14.02;;;9.30;;
21202;SDS011;10759;51.982;9.232;2023-12-20T10:57:19;11.50;;;7.93;;
21202;SDS011;10759;51.982;9.232;2023-12-20T10:59:48;14.48;;;8.88;;
21202;SDS011;10759;51.982;9.232;2023-12-20T11:02:21;12.57;;;8.40;;
21202;SDS011;10759;51.982;9.232;2023-12-20T11:04:50;20.67;;;10.02;;
21202;SDS011;10759;51.982;9.232;2023-12-20T11:07:29;16.15;;;9.18;;
21202;SDS011;10759;51.982;9.232;2023-12-20T11:10:02;16.13;;;9.45;;
21202;SDS011;10759;51.982;9.232;2023-12-20T11:12:39;16.15;;;8.93;;
21202;SDS011;10759;51.982;9.232;2023-12-20T11:15:15;14.02;;;9.55;;
21202;SDS011;10759;51.982;9.232;2023-12-20T11:17:44;13.93;;;10.95;;
21202;SDS011;10759;51.982;9.232;2023-12-20T11:20:18;11.13;;;9.05;;
21202;SDS011;10759;51.982;9.232;2023-12-20T11:22:52;13.83;;;9.60;;
21202;SDS011;10759;51.982;9.232;2023-12-20T11:25:21;13.82;;;8.73;;
21202;SDS011;10759;51.982;9.232;2023-12-20T11:28:06;14.65;;;8.27;;
21202;SDS011;10759;51.982;9.232;2023-12-20T11:30:42;12.10;;;9.20;;
21202;SDS011;10759;51.982;9.232;2023-12-20T11:33:15;13.32;;;7.97;;
21202;SDS011;10759;51.982;9.232;2023-12-20T11:35:44;11.10;;;6.93;;
21202;SDS011;10759;51.982;9.232;2023-12-20T11:38:13;11.98;;;7.78;;
21202;SDS011;10759;51.982;9.232;2023-12-20T11:40:42;7.97;;;6.05;;
21202;SDS011;10759;51.982;9.232;2023-12-20T11:43:10;7.20;;;5.85;;
21202;SDS011;10759;51.982;9.232;2023-12-20T11:45:38;10.73;;;7.07;;
21202;SDS011;10759;51.982;9.232;2023-12-20T11:48:17;8.45;;;5.97;;
21202;SDS011;10759;51.982;9.232;2023-12-20T11:50:47;14.65;;;6.28;;
21202;SDS011;10759;51.982;9.232;2023-12-20T11:53:15;9.03;;;6.57;;
21202;SDS011;10759;51.982;9.232;2023-12-20T11:55:47;9.18;;;6.22;;
21202;SDS011;10759;51.982;9.232;2023-12-20T11:58:15;13.40;;;6.17;;
21202;SDS011;10759;51.982;9.232;2023-12-20T12:00:43;10.60;;;5.45;;
21202;SDS011;10759;51.982;9.232;2023-12-20T12:03:14;14.48;;;6.15;;
21202;SDS011;10759;51.982;9.232;2023-12-20T12:05:42;10.82;;;5.43;;
21202;SDS011;10759;51.982;9.232;2023-12-20T12:08:11;12.70;;;4.57;;
21202;SDS011;10759;51.982;9.232;2023-12-20T12:10:40;13.23;;;5.22;;
21202;SDS011;10759;51.982;9.232;2023-12-20T12:13:08;9.77;;;4.18;;
21202;SDS011;10759;51.982;9.232;2023-12-20T12:15:36;13.00;;;5.32;;
21202;SDS011;10759;51.982;9.232;2023-12-20T12:18:05;12.93;;;5.32;;
21202;SDS011;10759;51.982;9.232;2023-12-20T12:20:33;14.27;;;4.40;;
21202;SDS011;10759;51.982;9.232;2023-12-20T12:23:04;7.22;;;3.78;;
21202;SDS011;10759;51.982;9.232;2023-12-20T12:25:34;9.77;;;4.13;;
21202;SDS011;10759;51.982;9.232;2023-12-20T12:28:08;9.45;;;4.43;;
21202;SDS011;10759;51.982;9.232;2023-12-20T12:30:37;12.88;;;4.90;;
21202;SDS011;10759;51.982;9.232;2023-12-20T12:33:15;11.40;;;4.25;;
21202;SDS011;10759;51.982;9.232;2023-12-20T12:35:44;10.85;;;4.60;;
21202;SDS011;10759;51.982;9.232;2023-12-20T12:38:14;7.33;;;4.37;;
21202;SDS011;10759;51.982;9.232;2023-12-20T12:40:44;10.35;;;4.35;;
21202;SDS011;10759;51.982;9.232;2023-12-20T12:43:12;10.98;;;3.90;;
21202;SDS011;10759;51.982;9.232;2023-12-20T12:45:40;11.10;;;4.32;;
21202;SDS011;10759;51.982;9.232;2023-12-20T12:48:09;8.13;;;3.88;;
21202;SDS011;10759;51.982;9.232;2023-12-20T12:50:37;8.18;;;3.60;;
21202;SDS011;10759;51.982;9.232;2023-12-20T12:53:05;7.78;;;4.07;;
21202;SDS011;10759;51.982;9.232;2023-12-20T12:55:34;10.43;;;3.00;;
21202;SDS011;10759;51.982;9.232;2023-12-20T12:58:04;11.43;;;4.43;;
21202;SDS011;10759;51.982;9.232;2023-12-20T13:00:32;6.70;;;3.75;;
21202;SDS011;10759;51.982;9.232;2023-12-20T13:03:00;10.55;;;3.38;;
21202;SDS011;10759;51.982;9.232;2023-12-20T13:05:28;12.85;;;5.93;;
21202;SDS011;10759;51.982;9.232;2023-12-20T13:08:00;10.38;;;4.00;;
21202;SDS011;10759;51.982;9.232;2023-12-20T13:10:28;10.98;;;3.92;;
21202;SDS011;10759;51.982;9.232;2023-12-20T13:12:55;9.75;;;3.17;;
21202;SDS011;10759;51.982;9.232;2023-12-20T13:15:25;12.90;;;4.57;;
21202;SDS011;10759;51.982;9.232;2023-12-20T13:17:53;10.75;;;3.83;;
21202;SDS011;10759;51.982;9.232;2023-12-20T13:20:21;9.80;;;4.03;;
21202;SDS011;10759;51.982;9.232;2023-12-20T13:22:49;10.05;;;3.97;;
21202;SDS011;10759;51.982;9.232;2023-12-20T13:25:17;8.25;;;4.13;;
21202;SDS011;10759;51.982;9.232;2023-12-20T13:27:44;9.52;;;4.65;;
21202;SDS011;10759;51.982;9.232;2023-12-20T13:30:13;9.40;;;3.58;;
21202;SDS011;10759;51.982;9.232;2023-12-20T13:32:44;9.80;;;4.88;;
21202;SDS011;10759;51.982;9.232;2023-12-20T13:35:12;6.43;;;1.87;;
21202;SDS011;10759;51.982;9.232;2023-12-20T13:37:40;7.20;;;1.88;;
21202;SDS011;10759;51.982;9.232;2023-12-20T13:40:08;5.28;;;2.00;;
21202;SDS011;10759;51.982;9.232;2023-12-20T13:42:37;1.95;;;1.10;;
21202;SDS011;10759;51.982;9.232;2023-12-20T13:45:05;4.60;;;1.50;;
21202;SDS011;10759;51.982;9.232;2023-12-20T13:47:34;5.03;;;2.03;;
21202;SDS011;10759;51.982;9.232;2023-12-20T13:50:04;3.38;;;2.10;;
21202;SDS011;10759;51.982;9.232;2023-12-20T13:55:04;2.03;;;1.40;;
21202;SDS011;10759;51.982;9.232;2023-12-20T13:57:34;5.45;;;2.00;;
21202;SDS011;10759;51.982;9.232;2023-12-20T14:00:09;6.57;;;1.63;;
21202;SDS011;10759;51.982;9.232;2023-12-20T14:02:41;4.20;;;1.38;;
21202;SDS011;10759;51.982;9.232;2023-12-20T14:05:10;3.40;;;1.30;;
21202;SDS011;10759;51.982;9.232;2023-12-20T14:07:40;5.72;;;1.50;;
21202;SDS011;10759;51.982;9.232;2023-12-20T14:10:11;7.05;;;2.30;;
21202;SDS011;10759;51.982;9.232;2023-12-20T14:12:40;7.25;;;1.90;;
21202;SDS011;10759;51.982;9.232;2023-12-20T14:15:08;5.65;;;2.03;;
21202;SDS011;10759;51.982;9.232;2023-12-20T14:17:37;3.03;;;1.50;;
21202;SDS011;10759;51.982;9.232;2023-12-20T14:20:06;7.32;;;2.38;;
21202;SDS011;10759;51.982;9.232;2023-12-20T14:22:35;8.65;;;3.17;;
21202;SDS011;10759;51.982;9.232;2023-12-20T14:25:05;2.53;;;1.67;;
21202;SDS011;10759;51.982;9.232;2023-12-20T14:27:35;5.60;;;1.83;;
21202;SDS011;10759;51.982;9.232;2023-12-20T14:30:03;6.60;;;2.35;;
21202;SDS011;10759;51.982;9.232;2023-12-20T14:32:31;6.20;;;2.38;;
21202;SDS011;10759;51.982;9.232;2023-12-20T14:35:04;4.18;;;1.65;;
21202;SDS011;10759;51.982;9.232;2023-12-20T14:37:32;5.75;;;1.55;;
21202;SDS011;10759;51.982;9.232;2023-12-20T14:40:02;3.92;;;1.48;;
21202;SDS011;10759;51.982;9.232;2023-12-20T14:42:30;9.32;;;4.68;;
21202;SDS011;10759;51.982;9.232;2023-12-20T14:44:58;5.80;;;2.00;;
21202;SDS011;10759;51.982;9.232;2023-12-20T14:47:26;5.35;;;2.28;;
21202;SDS011;10759;51.982;9.232;2023-12-20T14:49:54;2.55;;;1.90;;
21202;SDS011;10759;51.982;9.232;2023-12-20T14:52:22;5.40;;;1.95;;
21202;SDS011;10759;51.982;9.232;2023-12-20T14:54:50;3.65;;;1.70;;
21202;SDS011;10759;51.982;9.232;2023-12-20T14:57:19;6.88;;;1.70;;
21202;SDS011;10759;51.982;9.232;2023-12-20T14:59:47;6.00;;;1.93;;